Andros, Greece
Current Conditions -  °F | °C
As of 11:20 PM on Saturday 25 Oct 2014 (Local Time) from LGMK Reporting Station
Few Clouds Few Clouds  
Wind Chill: 59°   Ceiling: Unl
Heat Index: 59°   Visibility: 6mi
Dew Point: 52°   Wind: 9mph
Humidity: 77%   Direction: 20°NNE
Pressure: 29.88"   Gusts: NA
Location:  37.83°N, 24.93°E
Report Text: LGMK 252020Z 02008KT 9999 FEW018 15/11 Q1012
Loading
Personal Weather Stations






























Interactive Weather Map
Tropical Storm Tracking
New forecast layout! Learn more

10-Day Weather Forecast

Advertisements
Track Severe Weather on mobile